Belle Isle — FOXN — position and weather

sailwx.info

Track history (hours):
 
Tides and Currents Weather Stations Pressure Air Temp Water Temp Dewpoint Dewpoint Depression Visibility Wind Speed Wind Dir Waves Ship Positions

Belle Isle

Last reported at 2017-Jun-25 20:30 UTC. Time now 2017-Jun-25 20:32 UTC.
Position N 47°21' W 003°08'.

Length 16 m.

Type: SAR. MMSI: 227021500.

Date/timePositionNaut miles runAvg speedWind from/ knotsBaromVisibWave heightAir tempDewpointWater temp
2017-Jun-25 20:30N 47°21' W 003°08'1020.8
2017-Jun-25 20:00N 47°19' W 002°53'1321.0
2017-Jun-25 19:24N 47°16' W 002°35'819.2
2017-Jun-25 19:00N 47°13' W 002°24'916.7
2017-Jun-25 18:30N 47°16' W 002°12'4 8.3
2017-Jun-25 18:01N 47°13' W 002°16'4 5.8
2017-Jun-25 17:21N 47°16' W 002°12'1 1.7
2017-Jun-25 17:00N 47°16' W 002°12'0 0.0
2017-Jun-25 16:30N 47°16' W 002°12'0 0.0
2017-Jun-25 15:59N 47°16' W 002°12'1 1.1
2017-Jun-25 15:15N 47°16' W 002°12'0 0.7
2017-Jun-25 15:00N 47°16' W 002°12'0 0.2
2017-Jun-25 14:21N 47°16' W 002°12'0 0.0
2017-Jun-24 18:10N 47°16' W 002°12'0 0.3
2017-Jun-24 17:59N 47°16' W 002°12'0 0.3
2017-Jun-24 17:28N 47°16' W 002°12'0 0.4
2017-Jun-24 16:25N 47°16' W 002°12'2 4.0
2017-Jun-24 16:00N 47°15' W 002°14'2 2.9
2017-Jun-24 15:22N 47°16' W 002°12'1 1.5
2017-Jun-24 14:51N 47°16' W 002°13'910.1
2017-Jun-24 13:58N 47°08' W 002°20'0 0.5
2017-Jun-24 13:30N 47°08' W 002°19'4 8.4
2017-Jun-24 12:59N 47°12' W 002°17'6 6.4
2017-Jun-24 12:07N 47°16' W 002°12'0 0.1
2017-Jun-24 07:20N 47°17' W 002°12'310.0
2017-Jun-24 07:00N 47°14' W 002°15'1217.8
2017-Jun-24 06:19N 47°14' W 002°33'619.6
2017-Jun-24 06:00N 47°16' W 002°42'1020.1
2017-Jun-24 05:30N 47°18' W 002°56'918.1
2017-Jun-24 05:00N 47°21' W 003°09'0 0.0
2017-Jun-22 13:30N 47°21' W 003°09'816.3
2017-Jun-22 13:00N 47°24' W 002°58'510.3
2017-Jun-22 12:30N 47°21' W 002°53'510.2
2017-Jun-22 12:01N 47°21' W 002°60'612.4
2017-Jun-22 11:30N 47°21' W 003°09'  
2017-Jun-17 13:48N 47°21' W 003°09'413.8
2017-Jun-17 13:30N 47°25' W 003°11'1020.0
2017-Jun-17 13:00N 47°34' W 003°17'1019.2
2017-Jun-17 12:30N 47°43' W 003°22'1 1.6
2017-Jun-17 12:00N 47°44' W 003°22'0 0.6
2017-Jun-17 11:30N 47°44' W 003°22'1 2.0
2017-Jun-17 11:00N 47°43' W 003°22'4 7.2
2017-Jun-17 10:30N 47°39' W 003°20'4 7.8
2017-Jun-17 10:00N 47°36' W 003°17'4 7.8
2017-Jun-17 09:30N 47°33' W 003°13'4 7.9
2017-Jun-17 09:00N 47°30' W 003°10'4 7.8
2017-Jun-17 08:30N 47°27' W 003°07'4 7.8
2017-Jun-17 08:00N 47°24' W 003°02'4 8.0
2017-Jun-17 07:30N 47°22' W 002°57'3 6.9
2017-Jun-17 07:00N 47°21' W 002°53'4 7.4
2017-Jun-17 06:31N 47°22' W 002°58'  
Track history (hours):
 
Tides and Currents Weather Stations Pressure Air Temp Water Temp Dewpoint Dewpoint Depression Visibility Wind Speed Wind Dir Waves Ship Positions

Belle Isle

Last reported at 2017-Jun-25 20:30 UTC. Time now 2017-Jun-25 20:32 UTC.
Position N 47°21' W 003°08'.

Length 16 m.

Type: SAR. MMSI: 227021500.

Date/timePositionNaut miles runAvg speedWind from/ knotsBaromVisibWave heightAir tempDewpointWater temp
2017-Jun-25 20:30N 47°21' W 003°08'1020.8
2017-Jun-25 20:00N 47°19' W 002°53'1321.0
2017-Jun-25 19:24N 47°16' W 002°35'819.2
2017-Jun-25 19:00N 47°13' W 002°24'916.7
2017-Jun-25 18:30N 47°16' W 002°12'4 8.3
2017-Jun-25 18:01N 47°13' W 002°16'4 5.8
2017-Jun-25 17:21N 47°16' W 002°12'1 1.7
2017-Jun-25 17:00N 47°16' W 002°12'0 0.0
2017-Jun-25 16:30N 47°16' W 002°12'0 0.0
2017-Jun-25 15:59N 47°16' W 002°12'1 1.1
2017-Jun-25 15:15N 47°16' W 002°12'0 0.7
2017-Jun-25 15:00N 47°16' W 002°12'0 0.2
2017-Jun-25 14:21N 47°16' W 002°12'0 0.0
2017-Jun-24 18:10N 47°16' W 002°12'0 0.3
2017-Jun-24 17:59N 47°16' W 002°12'0 0.3
2017-Jun-24 17:28N 47°16' W 002°12'0 0.4
2017-Jun-24 16:25N 47°16' W 002°12'2 4.0
2017-Jun-24 16:00N 47°15' W 002°14'2 2.9
2017-Jun-24 15:22N 47°16' W 002°12'1 1.5
2017-Jun-24 14:51N 47°16' W 002°13'910.1
2017-Jun-24 13:58N 47°08' W 002°20'0 0.5
2017-Jun-24 13:30N 47°08' W 002°19'4 8.4
2017-Jun-24 12:59N 47°12' W 002°17'6 6.4
2017-Jun-24 12:07N 47°16' W 002°12'0 0.1
2017-Jun-24 07:20N 47°17' W 002°12'310.0
2017-Jun-24 07:00N 47°14' W 002°15'1217.8
2017-Jun-24 06:19N 47°14' W 002°33'619.6
2017-Jun-24 06:00N 47°16' W 002°42'1020.1
2017-Jun-24 05:30N 47°18' W 002°56'918.1
2017-Jun-24 05:00N 47°21' W 003°09'0 0.0
2017-Jun-22 13:30N 47°21' W 003°09'816.3
2017-Jun-22 13:00N 47°24' W 002°58'510.3
2017-Jun-22 12:30N 47°21' W 002°53'510.2
2017-Jun-22 12:01N 47°21' W 002°60'612.4
2017-Jun-22 11:30N 47°21' W 003°09'  
2017-Jun-17 13:48N 47°21' W 003°09'413.8
2017-Jun-17 13:30N 47°25' W 003°11'1020.0
2017-Jun-17 13:00N 47°34' W 003°17'1019.2
2017-Jun-17 12:30N 47°43' W 003°22'1 1.6
2017-Jun-17 12:00N 47°44' W 003°22'0 0.6
2017-Jun-17 11:30N 47°44' W 003°22'1 2.0
2017-Jun-17 11:00N 47°43' W 003°22'4 7.2
2017-Jun-17 10:30N 47°39' W 003°20'4 7.8
2017-Jun-17 10:00N 47°36' W 003°17'4 7.8
2017-Jun-17 09:30N 47°33' W 003°13'4 7.9
2017-Jun-17 09:00N 47°30' W 003°10'4 7.8
2017-Jun-17 08:30N 47°27' W 003°07'4 7.8
2017-Jun-17 08:00N 47°24' W 003°02'4 8.0
2017-Jun-17 07:30N 47°22' W 002°57'3 6.9
2017-Jun-17 07:00N 47°21' W 002°53'4 7.4
2017-Jun-17 06:31N 47°22' W 002°58'  

Dump ship's entire track history